createdAt,value
2022-08-17T00:03:22.321Z,957.57
2022-08-17T00:08:23.407Z,957.62
2022-08-17T00:43:35.042Z,957.35
2022-08-17T01:03:41.211Z,957.21
2022-08-17T01:18:45.501Z,957.22
2022-08-17T01:23:47.103Z,957.24
2022-08-17T01:28:53.342Z,957.22
2022-08-17T01:33:50.326Z,957.17
2022-08-17T01:48:55.518Z,957.21
2022-08-17T01:53:56.686Z,957.29
2022-08-17T01:58:58.305Z,957.22
2022-08-17T02:09:02.084Z,957.19
2022-08-17T02:14:03.885Z,957.13
2022-08-17T02:19:04.061Z,957.09
2022-08-17T02:24:06.054Z,957.05
2022-08-17T02:29:08.085Z,957.05
2022-08-17T02:34:09.546Z,957.1
2022-08-17T02:39:11.409Z,957.01
2022-08-17T02:44:12.786Z,957
2022-08-17T02:49:14.094Z,956.95
2022-08-17T02:54:39.464Z,956.9
2022-08-17T02:59:17.743Z,956.87
2022-08-17T03:04:19.096Z,956.85
2022-08-17T03:09:20.949Z,956.84
2022-08-17T03:14:26.054Z,956.73
2022-08-17T03:19:24.873Z,956.69
2022-08-17T03:24:28.895Z,956.65
2022-08-17T03:29:28.139Z,956.67
2022-08-17T03:34:30.194Z,956.75
2022-08-17T03:39:31.717Z,956.82
2022-08-17T03:44:33.014Z,956.9
2022-08-17T03:49:34.819Z,956.94
2022-08-17T03:54:36.686Z,956.95
2022-08-17T03:59:38.271Z,957.01
2022-08-17T04:04:39.935Z,957.01
2022-08-17T04:09:41.526Z,956.99
2022-08-17T04:14:51.601Z,957.09
2022-08-17T04:19:45.184Z,957.17
2022-08-17T04:24:46.798Z,957.15
2022-08-17T04:29:50.127Z,957.09
2022-08-17T04:34:50.076Z,957.02
2022-08-17T04:39:51.802Z,957.07
2022-08-17T04:44:53.450Z,957.02
2022-08-17T04:49:55.097Z,956.95
2022-08-17T04:54:56.446Z,956.97
2022-08-17T04:59:57.843Z,956.9
2022-08-17T05:04:59.150Z,956.84
2022-08-17T05:10:00.759Z,956.79
2022-08-17T05:15:02.113Z,956.92
2022-08-17T05:20:03.984Z,956.91
2022-08-17T05:25:05.521Z,956.98
2022-08-17T05:30:06.865Z,957.07
2022-08-17T05:35:08.106Z,957.14
2022-08-17T05:40:09.737Z,957.21
2022-08-17T05:45:11.583Z,957.41
2022-08-17T05:50:13.061Z,957.29
2022-08-17T05:55:14.975Z,957.21
2022-08-17T06:00:16.231Z,957.19
2022-08-17T06:05:18.161Z,957.31
2022-08-17T06:10:19.701Z,957.38
2022-08-17T06:15:21.571Z,957.36
2022-08-17T06:20:22.750Z,957.48
2022-08-17T06:25:24.331Z,957.53
2022-08-17T06:30:25.707Z,957.42
2022-08-17T06:35:31.912Z,957.46
2022-08-17T06:40:29.273Z,957.52
2022-08-17T06:45:30.948Z,957.55
2022-08-17T06:50:32.860Z,957.58
2022-08-17T06:55:37.809Z,957.57
2022-08-17T07:00:36.612Z,957.55
2022-08-17T07:05:38.662Z,957.59
2022-08-17T07:10:39.792Z,957.69
2022-08-17T07:15:41.661Z,957.76
2022-08-17T07:20:42.951Z,957.78
2022-08-17T07:25:44.695Z,957.75
2022-08-17T07:30:47.203Z,957.75
2022-08-17T07:35:48.192Z,957.78
2022-08-17T07:40:49.866Z,957.82
2022-08-17T07:45:51.799Z,957.9
2022-08-17T07:50:53.536Z,957.92
2022-08-17T07:55:54.906Z,958.01
2022-08-17T08:01:03.198Z,957.96
2022-08-17T08:06:04.564Z,958.04
2022-08-17T08:11:06.304Z,958.07
2022-08-17T08:16:07.720Z,957.99
2022-08-17T08:21:09.555Z,957.96
2022-08-17T08:26:12.343Z,957.98
2022-08-17T08:31:12.366Z,957.94
2022-08-17T08:36:13.770Z,957.96
2022-08-17T08:41:15.377Z,957.86
2022-08-17T08:46:18.441Z,957.8
2022-08-17T08:51:18.428Z,957.87
2022-08-17T08:56:20.578Z,957.88
2022-08-17T09:01:22.662Z,957.79
2022-08-17T09:06:32.417Z,957.63
2022-08-17T09:11:25.407Z,957.61
2022-08-17T09:16:27.049Z,957.68
2022-08-17T09:21:29.004Z,957.76
2022-08-17T09:26:30.636Z,957.76
2022-08-17T09:31:33.431Z,957.74
2022-08-17T09:36:33.814Z,957.84
2022-08-17T09:41:35.420Z,957.86
2022-08-17T09:46:38.929Z,957.73
2022-08-17T09:51:39.549Z,957.61
2022-08-17T09:56:46.129Z,957.66
2022-08-17T10:01:42.791Z,957.65
2022-08-17T10:06:44.341Z,957.69
2022-08-17T10:11:46.346Z,957.7
2022-08-17T10:16:48.131Z,957.77
2022-08-17T10:21:50.258Z,957.72
2022-08-17T10:26:57.011Z,957.68
2022-08-17T10:31:53.413Z,957.63
2022-08-17T10:36:55.404Z,957.61
2022-08-17T10:41:56.631Z,957.63
2022-08-17T10:46:58.181Z,957.58
2022-08-17T10:51:59.725Z,957.59
2022-08-17T10:57:01.180Z,957.69
2022-08-17T11:02:03.015Z,957.71
2022-08-17T11:07:04.262Z,957.65
2022-08-17T11:12:06.277Z,957.66
2022-08-17T11:17:07.730Z,957.7
2022-08-17T11:22:09.792Z,957.75
2022-08-17T11:27:12.011Z,957.72
2022-08-17T11:32:12.826Z,957.65
2022-08-17T11:37:14.047Z,957.57
2022-08-17T11:42:15.391Z,957.57
2022-08-17T11:47:17.159Z,957.57
2022-08-17T11:52:18.807Z,957.59
2022-08-17T11:57:20.098Z,957.58
2022-08-17T12:02:21.603Z,957.58
2022-08-17T12:07:23.650Z,957.7
2022-08-17T12:12:25.600Z,957.74
2022-08-17T12:17:40.019Z,957.69
2022-08-17T12:22:28.954Z,957.64
2022-08-17T12:27:46.105Z,957.63
2022-08-17T12:32:32.463Z,957.53
2022-08-17T12:37:34.253Z,957.58
2022-08-17T12:42:36.291Z,957.53
2022-08-17T12:47:37.854Z,957.46
2022-08-17T12:52:39.801Z,957.38
2022-08-17T12:57:41.648Z,957.26
2022-08-17T13:02:43.502Z,957.29
2022-08-17T13:07:45.276Z,957.23
2022-08-17T13:12:47.182Z,957.24
2022-08-17T13:17:49.182Z,957.19
2022-08-17T13:22:50.481Z,957.22
2022-08-17T13:27:52.620Z,957.2
2022-08-17T13:32:53.829Z,957.14
2022-08-17T13:37:55.571Z,957.16
2022-08-17T13:42:57.679Z,957.19
2022-08-17T13:47:59.714Z,957.24
2022-08-17T13:53:01.639Z,957.27
2022-08-17T13:58:07.310Z,957.19
2022-08-17T14:03:05.404Z,957.16
2022-08-17T14:08:07.495Z,957.19
2022-08-17T14:13:08.950Z,957.14
2022-08-17T14:18:10.413Z,957.03
2022-08-17T14:23:12.363Z,956.9
2022-08-17T14:28:14.280Z,956.89
2022-08-17T14:33:16.191Z,956.83
2022-08-17T14:38:18.051Z,956.76
2022-08-17T14:43:20.153Z,956.52
2022-08-17T14:48:21.363Z,956.53
2022-08-17T14:53:23.277Z,956.49
2022-08-17T15:23:32.834Z,956.59
2022-08-17T15:28:34.154Z,956.57
2022-08-17T15:38:37.554Z,956.71
2022-08-17T16:18:53.505Z,956.73
2022-08-17T16:23:53.099Z,956.67
2022-08-17T16:28:54.660Z,956.69
2022-08-17T16:34:15.483Z,956.64
2022-08-17T16:38:58.569Z,956.62
2022-08-17T16:44:00.526Z,956.56
2022-08-17T16:49:01.750Z,956.52
2022-08-17T16:54:03.752Z,956.4
2022-08-17T16:59:14.339Z,956.35
2022-08-17T17:04:07.227Z,956.32
2022-08-17T17:09:09.424Z,956.32
2022-08-17T17:14:11.170Z,956.28
2022-08-17T17:19:13.248Z,956.23
2022-08-17T17:24:14.370Z,956.19
2022-08-17T17:29:16.317Z,956.11
2022-08-17T17:34:17.912Z,956.07
2022-08-17T17:39:19.244Z,956.17
2022-08-17T17:44:20.570Z,956.15
2022-08-17T17:49:22.696Z,956.12
2022-08-17T17:54:24.633Z,956.1
2022-08-17T17:59:25.927Z,956.1
2022-08-17T18:04:27.260Z,956.05
2022-08-17T18:09:28.998Z,956.03
2022-08-17T18:14:30.202Z,955.86
2022-08-17T18:19:32.114Z,955.86
2022-08-17T18:24:33.708Z,955.82
2022-08-17T18:29:35.264Z,955.85
2022-08-17T18:34:46.894Z,955.94
2022-08-17T18:39:38.829Z,955.88
2022-08-17T18:44:40.448Z,956.01
2022-08-17T18:49:41.710Z,955.99
2022-08-17T18:54:43.725Z,955.97
2022-08-17T18:59:45.696Z,955.93
2022-08-17T19:04:47.181Z,955.98
2022-08-17T19:09:48.445Z,955.93
2022-08-17T19:14:50.152Z,955.82
2022-08-17T19:19:51.612Z,955.69
2022-08-17T19:24:56.252Z,955.63
2022-08-17T19:29:54.624Z,955.75
2022-08-17T19:34:56.204Z,955.89
2022-08-17T19:39:58.353Z,955.98
2022-08-17T19:45:00.343Z,956.04
2022-08-17T19:50:01.776Z,956.07
2022-08-17T19:55:03.118Z,956.17
2022-08-17T20:00:04.558Z,956.16
2022-08-17T20:05:06.367Z,956.16
2022-08-17T20:10:08.330Z,956.18
2022-08-17T20:15:10.185Z,956.27
2022-08-17T20:20:19.505Z,956.22
2022-08-17T20:25:13.925Z,956.24
2022-08-17T20:30:15.145Z,956.29
2022-08-17T20:35:16.354Z,956.24
2022-08-17T20:40:18.235Z,956.09
2022-08-17T20:45:19.955Z,955.95
2022-08-17T20:50:21.469Z,955.85
2022-08-17T20:55:23.509Z,955.82
2022-08-17T21:00:24.877Z,955.78
2022-08-17T21:05:26.121Z,955.75
2022-08-17T21:10:27.460Z,955.75
2022-08-17T21:15:29.033Z,955.81
2022-08-17T21:20:32.167Z,955.89
2022-08-17T21:25:33.149Z,955.85
2022-08-17T21:30:34.562Z,955.8
2022-08-17T21:35:38.779Z,955.68
2022-08-17T21:40:37.948Z,955.62
2022-08-17T21:45:40.023Z,955.65
2022-08-17T21:50:41.229Z,955.68
2022-08-17T21:55:42.607Z,955.78
2022-08-17T22:15:49.064Z,955.88
2022-08-17T22:20:50.286Z,956.05
2022-08-17T22:25:51.774Z,956.49
2022-08-17T22:30:53.688Z,956.99
2022-08-17T22:35:55.630Z,957.36
2022-08-17T22:40:57.428Z,957.61
2022-08-17T22:45:59.274Z,958.03
2022-08-17T22:51:00.679Z,958.2
2022-08-17T22:56:02.217Z,958.34
2022-08-17T23:01:03.909Z,958.41
2022-08-17T23:06:05.726Z,958.34
2022-08-17T23:11:07.419Z,958.51
2022-08-17T23:16:09.232Z,958.51
2022-08-17T23:21:13.438Z,958.48
2022-08-17T23:26:12.706Z,958.34
2022-08-17T23:31:14.467Z,958.24
2022-08-17T23:36:16.778Z,958.01
2022-08-17T23:41:17.929Z,957.93
2022-08-17T23:46:19.982Z,958.04
2022-08-17T23:51:21.582Z,958.13
2022-08-17T23:56:23.432Z,958.25
